createdAt,value
2022-10-04T00:01:10.053Z,14.17
2022-10-04T00:06:17.729Z,13.99
2022-10-04T00:11:32.124Z,14.02
2022-10-04T00:16:38.339Z,14.10
2022-10-04T00:21:56.248Z,14.14
2022-10-04T00:27:20.694Z,14.08
2022-10-04T00:32:27.528Z,14.10
2022-10-04T00:37:59.108Z,13.95
2022-10-04T00:43:21.328Z,13.96
2022-10-04T00:48:42.128Z,13.99
2022-10-04T00:53:58.782Z,14.01
2022-10-04T00:59:05.573Z,13.97
2022-10-04T01:04:21.558Z,13.98
2022-10-04T01:09:23.848Z,14.04
2022-10-04T01:14:42.267Z,13.93
2022-10-04T01:19:51.222Z,13.96
2022-10-04T01:24:52.694Z,14.02
2022-10-04T01:29:54.246Z,14.06
2022-10-04T01:34:56.246Z,13.94
2022-10-04T01:39:58.372Z,13.95
2022-10-04T01:45:07.988Z,13.93
2022-10-04T01:50:15.984Z,13.97
2022-10-04T01:55:21.304Z,13.93
2022-10-04T02:00:24.459Z,13.90
2022-10-04T02:05:33.522Z,13.91
2022-10-04T02:10:39.813Z,13.85
2022-10-04T02:15:46.021Z,13.90
2022-10-04T02:20:49.544Z,13.86
2022-10-04T02:25:51.978Z,13.95
2022-10-04T02:31:12.147Z,13.94
2022-10-04T02:36:15.816Z,13.93
2022-10-04T02:41:27.857Z,13.93
2022-10-04T02:46:35.512Z,13.95
2022-10-04T02:51:38.677Z,13.93
2022-10-04T02:56:40.453Z,13.79
2022-10-04T03:01:51.177Z,13.91
2022-10-04T03:06:53.287Z,13.93
2022-10-04T03:11:56.045Z,13.90
2022-10-04T03:17:01.222Z,13.91
2022-10-04T03:22:07.653Z,13.69
2022-10-04T03:27:09.918Z,13.81
2022-10-04T03:32:14.673Z,13.90
2022-10-04T03:37:17.286Z,13.85
2022-10-04T03:42:39.022Z,13.85
2022-10-04T03:47:43.937Z,13.84
2022-10-04T03:53:08.561Z,13.80
2022-10-04T03:58:14.486Z,13.70
2022-10-04T04:03:19.119Z,13.75
2022-10-04T04:08:28.687Z,13.66
2022-10-04T04:13:58.615Z,13.82
2022-10-04T04:19:02.819Z,13.65
2022-10-04T04:24:08.651Z,13.62
2022-10-04T04:29:24.882Z,13.64
2022-10-04T04:34:35.541Z,13.70
2022-10-04T04:39:37.403Z,13.68
2022-10-04T04:44:47.398Z,13.63
2022-10-04T04:49:49.909Z,13.58
2022-10-04T04:54:53.044Z,13.62
2022-10-04T04:59:58.551Z,13.67
2022-10-04T05:05:20.172Z,13.66
2022-10-04T05:10:33.131Z,13.63
2022-10-04T05:15:37.240Z,13.54
2022-10-04T05:20:38.971Z,13.53
2022-10-04T05:25:40.635Z,13.62
2022-10-04T05:30:48.691Z,13.66
2022-10-04T05:36:24.384Z,13.57
2022-10-04T05:41:33.715Z,13.55
2022-10-04T05:46:35.437Z,13.64
2022-10-04T05:51:49.646Z,13.59
2022-10-04T05:56:51.041Z,13.63
2022-10-04T06:02:25.232Z,13.61
2022-10-04T06:07:38.643Z,13.60
2022-10-04T06:12:50.743Z,13.70
2022-10-04T06:18:09.407Z,13.69
2022-10-04T06:23:14.091Z,13.69
2022-10-04T06:28:15.566Z,13.71
2022-10-04T06:34:05.486Z,13.79
2022-10-04T06:39:20.092Z,13.81
2022-10-04T06:44:51.096Z,13.85
2022-10-04T06:50:05.738Z,13.78
2022-10-04T06:55:15.591Z,13.92
2022-10-04T07:00:24.469Z,13.93
2022-10-04T07:05:32.331Z,13.96
2022-10-04T07:10:54.044Z,13.95
2022-10-04T07:15:59.347Z,14.05
2022-10-04T07:21:11.718Z,14.07
2022-10-04T07:26:43.793Z,14.26
2022-10-04T07:31:46.906Z,14.30
2022-10-04T07:36:50.333Z,14.37
2022-10-04T07:41:57.660Z,14.35
2022-10-04T07:47:20.250Z,14.41
2022-10-04T07:53:13.033Z,14.48
2022-10-04T07:58:54.337Z,14.56
2022-10-04T08:04:14.131Z,14.62
2022-10-04T08:09:46.865Z,14.54
2022-10-04T08:15:14.418Z,14.64
2022-10-04T08:20:22.024Z,14.85
2022-10-04T08:25:27.768Z,14.85
2022-10-04T08:30:38.542Z,14.81
2022-10-04T08:35:46.151Z,14.81
2022-10-04T08:41:25.868Z,14.91
2022-10-04T08:46:46.908Z,14.91
2022-10-04T08:52:12.730Z,14.97
2022-10-04T08:57:54.284Z,15.06
2022-10-04T09:03:11.587Z,14.95
2022-10-04T09:08:31.114Z,15.08
2022-10-04T09:13:54.633Z,15.11
2022-10-04T09:19:34.087Z,15.14
2022-10-04T09:25:09.077Z,15.17
2022-10-04T09:30:21.330Z,15.17
2022-10-04T09:35:56.641Z,15.28
2022-10-04T09:41:03.695Z,15.22
2022-10-04T09:46:12.033Z,15.28
2022-10-04T09:51:30.574Z,15.44
2022-10-04T09:56:47.113Z,15.50
2022-10-04T10:02:00.601Z,15.45
2022-10-04T10:07:23.738Z,15.42
2022-10-04T10:12:54.574Z,15.50
2022-10-04T10:18:21.830Z,15.65
2022-10-04T10:23:30.373Z,15.77
2022-10-04T10:29:02.627Z,15.77
2022-10-04T10:34:52.351Z,15.76
2022-10-04T10:40:27.996Z,15.77
2022-10-04T10:45:35.627Z,15.71
2022-10-04T10:51:03.293Z,15.86
2022-10-04T10:56:08.571Z,15.94
2022-10-04T11:01:19.147Z,15.99
2022-10-04T11:06:38.865Z,15.99
2022-10-04T11:12:06.091Z,16.03
2022-10-04T11:17:25.608Z,16.10
2022-10-04T11:23:03.739Z,16.15
2022-10-04T11:28:18.451Z,16.13
2022-10-04T11:33:39.031Z,16.03
2022-10-04T11:39:03.527Z,16.14
2022-10-04T11:44:47.476Z,16.19
2022-10-04T11:49:58.974Z,16.25
2022-10-04T11:55:23.846Z,16.41
2022-10-04T12:00:29.352Z,16.32
2022-10-04T12:05:40.721Z,16.29
2022-10-04T12:10:43.927Z,16.25
2022-10-04T12:16:13.030Z,16.21
2022-10-04T12:21:28.902Z,16.15
2022-10-04T12:26:52.677Z,16.16
2022-10-04T12:32:00.362Z,16.15
2022-10-04T12:37:17.048Z,16.13
2022-10-04T12:42:35.068Z,16.11
2022-10-04T12:47:51.898Z,16.11
2022-10-04T12:52:57.028Z,16.12
2022-10-04T12:58:09.980Z,16.17
2022-10-04T13:03:23.965Z,16.14
2022-10-04T13:08:50.191Z,16.15
2022-10-04T13:13:59.597Z,16.19
2022-10-04T13:19:33.592Z,16.18
2022-10-04T13:25:16.294Z,16.14
2022-10-04T13:30:27.674Z,16.16
2022-10-04T13:35:37.057Z,16.18
2022-10-04T13:40:41.321Z,16.21
2022-10-04T13:45:52.982Z,16.17
2022-10-04T13:51:32.362Z,16.21
2022-10-04T13:57:11.607Z,16.23
2022-10-04T14:02:43.873Z,16.28
2022-10-04T14:08:23.063Z,16.25
2022-10-04T14:13:41.098Z,16.22
2022-10-04T14:19:14.154Z,16.23
2022-10-04T14:24:21.671Z,16.30
2022-10-04T14:29:32.497Z,16.28
2022-10-04T14:34:39.735Z,16.34
2022-10-04T14:39:59.878Z,16.35
2022-10-04T14:45:37.822Z,16.29
2022-10-04T14:50:51.214Z,16.29
2022-10-04T14:56:06.317Z,16.27
2022-10-04T15:01:13.582Z,16.37
2022-10-04T15:06:26.910Z,16.29
2022-10-04T15:11:40.018Z,16.26
2022-10-04T15:16:58.210Z,16.24
2022-10-04T15:22:22.339Z,16.22
2022-10-04T15:27:40.584Z,16.18
2022-10-04T15:32:44.863Z,16.17
2022-10-04T15:38:19.229Z,16.14
2022-10-04T15:43:27.570Z,16.08
2022-10-04T15:48:50.624Z,16.06
2022-10-04T15:53:55.242Z,16.05
2022-10-04T15:59:08.913Z,16.01
2022-10-04T16:04:46.034Z,15.92
2022-10-04T16:09:55.048Z,15.86
2022-10-04T16:15:19.794Z,15.82
2022-10-04T16:20:36.457Z,15.83
2022-10-04T16:25:39.042Z,15.81
2022-10-04T16:31:08.327Z,15.79
2022-10-04T16:36:13.958Z,15.71
2022-10-04T16:41:32.021Z,15.67
2022-10-04T16:46:45.023Z,15.66
2022-10-04T16:52:14.761Z,15.46
2022-10-04T16:57:22.461Z,15.46
2022-10-04T17:02:51.662Z,15.39
2022-10-04T17:08:22.351Z,15.22
2022-10-04T17:13:52.939Z,15.38
2022-10-04T17:19:30.379Z,15.45
2022-10-04T17:24:59.462Z,15.11
2022-10-04T17:30:21.948Z,15.06
2022-10-04T17:35:48.081Z,15.07
2022-10-04T17:41:08.855Z,14.98
2022-10-04T17:46:22.119Z,14.70
2022-10-04T17:51:42.319Z,14.71
2022-10-04T17:56:48.864Z,14.65
2022-10-04T18:01:55.555Z,14.58
2022-10-04T18:07:01.970Z,14.62
2022-10-04T18:12:36.937Z,14.51
2022-10-04T18:17:42.105Z,14.33
2022-10-04T18:22:48.700Z,14.38
2022-10-04T18:28:10.625Z,14.51
2022-10-04T18:33:26.473Z,14.42
2022-10-04T18:38:29.253Z,14.18
2022-10-04T18:43:33.788Z,14.16
2022-10-04T18:48:38.161Z,14.07
2022-10-04T18:53:44.718Z,14.28
2022-10-04T18:59:31.695Z,14.03
2022-10-04T19:04:49.730Z,14.04
2022-10-04T19:09:58.090Z,14.07
2022-10-04T19:15:08.351Z,14.05
2022-10-04T19:20:23.881Z,13.99
2022-10-04T19:25:35.569Z,13.96
2022-10-04T19:31:00.611Z,13.87
2022-10-04T19:36:16.898Z,13.83
2022-10-04T19:41:48.943Z,13.79
2022-10-04T19:46:56.062Z,13.63
2022-10-04T19:52:12.643Z,13.83
2022-10-04T19:57:15.110Z,13.75
2022-10-04T20:02:16.749Z,13.69
2022-10-04T20:07:23.233Z,13.64
2022-10-04T20:12:36.487Z,13.46
2022-10-04T20:17:40.165Z,13.49
2022-10-04T20:22:51.554Z,13.45
2022-10-04T20:27:53.015Z,13.43
2022-10-04T20:32:55.785Z,13.56
2022-10-04T20:38:19.983Z,13.23
2022-10-04T20:43:19.205Z,13.41
2022-10-04T20:48:22.771Z,13.28
2022-10-04T20:53:25.886Z,13.22
2022-10-04T20:58:32.731Z,12.94
2022-10-04T21:03:36.615Z,13.12
2022-10-04T21:08:38.390Z,12.87
2022-10-04T21:13:56.598Z,12.97
2022-10-04T21:19:33.505Z,12.80
2022-10-04T21:24:39.749Z,12.72
2022-10-04T21:29:41.217Z,13.00
2022-10-04T21:34:53.127Z,12.66
2022-10-04T21:39:56.074Z,12.78
2022-10-04T21:44:57.691Z,12.74
2022-10-04T21:49:59.219Z,12.83
2022-10-04T21:55:00.760Z,12.64
2022-10-04T22:00:02.426Z,12.66
2022-10-04T22:05:13.805Z,12.53
2022-10-04T22:10:15.400Z,12.69
2022-10-04T22:15:16.969Z,12.55
2022-10-04T22:20:18.628Z,12.20
2022-10-04T22:25:22.024Z,12.39
2022-10-04T22:30:24.965Z,12.30
2022-10-04T22:35:29.287Z,12.38
2022-10-04T22:40:30.784Z,12.43
2022-10-04T22:45:34.925Z,12.25
2022-10-04T22:50:37.340Z,12.53
2022-10-04T22:55:40.919Z,12.40
2022-10-04T23:00:43.451Z,12.43
2022-10-04T23:05:45.311Z,12.33
2022-10-04T23:10:47.035Z,12.15
2022-10-04T23:15:48.682Z,12.44
2022-10-04T23:20:55.819Z,12.23
2022-10-04T23:25:57.314Z,12.39
2022-10-04T23:31:04.399Z,12.39
2022-10-04T23:36:11.057Z,12.22
2022-10-04T23:41:12.574Z,12.20
2022-10-04T23:46:18.760Z,12.29
2022-10-04T23:51:20.632Z,12.18
2022-10-04T23:56:25.047Z,12.09
